Weather - Helsinki Query any day in the database

Current weather  

Weather data for a selected day (2006-01-01 -2018-01-20)

    Enter query date: (yyy-mm-dd)        <-     scroll days         ->

day curves

Low temperature°C -3.710:30  
High temperature°C -2.704:00  
Low wind chill°C -8.213:00  
Average temperature°C -3.2   
High wind speed (10 min) m/s 3.813:00  
Low pressurehPa 1008.500:00  
High pressurehPa 1009.912:00  
Low R.H% 9513:00  
High R.H% 10007:00  
Day weather data as a table

Date Time Temp
°C
Chill
°C
Pressure
hPA
Wind
m/s
Hum
%
Precip
mm
2018-01-20 16:00:00 -3.5  -8.0  1009.6 3.3 95 -
2018-01-20 15:30:00 -3.6  -7.7  1009.6 2.9 95 -
2018-01-20 15:00:00 -3.5  -7.5  1009.6 2.8 95 -
2018-01-20 14:30:00 -3.4  -7.2  1009.7 2.6 95 -
2018-01-20 14:00:00 -3.5  -7.9  1009.6 3.2 95 -
2018-01-20 13:30:00 -3.5  -8.1  1009.7 3.4 96 -
2018-01-20 13:00:00 -3.3  -8.2  1009.7 3.8 95 -
2018-01-20 12:30:00 -3.3  -7.9  1009.7 3.5 96 -
2018-01-20 12:00:00 -3.3  -7.7  1009.9 3.2 96 -
2018-01-20 11:30:00 -3.5  -7.3  1009.8 2.6 97 -
2018-01-20 11:00:00 -3.6  -7.6  1009.7 2.8 97 -
2018-01-20 10:30:00 -3.7  -8.0  1009.7 3.0 97 -
2018-01-20 10:00:00 -3.7  -7.5  1009.6 2.6 97 -
2018-01-20 09:30:00 -3.7  -7.3  1009.4 2.4 97 -
2018-01-20 09:00:00 -3.5  -7.3  1009.4 2.6 98 -
2018-01-20 08:30:00 -3.3  -6.7  1009.2 2.3 98 -
2018-01-20 08:00:00 -3.2  -6.8  1009.1 2.5 98 -
2018-01-20 07:30:00 -3.2  -7.2  1009.0 2.8 99 -
2018-01-20 07:00:00 -3.0  -6.4  1009.1 2.3 100 -
2018-01-20 06:30:00 -3.1  -6.4  1009.0 2.2 100 -
2018-01-20 06:00:00 -3.0  -7.2  1008.9 3.1 100 -
2018-01-20 05:30:00 -3.0  -7.1  1009.0 3.0 100 -
2018-01-20 05:00:00 -3.0  -7.4  1009.0 3.3 100 -
2018-01-20 04:30:00 -2.9  -6.7  1009.0 2.7 100 -
2018-01-20 04:00:00 -2.7  -6.2  1009.1 2.5 99 -
2018-01-20 03:30:00 -2.7  -6.5  1009.1 2.7 99 -
2018-01-20 03:00:00 -2.8  -6.4  1009.1 2.5 98 -
2018-01-20 02:30:00 -2.9  -6.4  1009.1 2.4 98 -
2018-01-20 02:00:00 -2.8  -6.7  1009.0 2.8 98 -
2018-01-20 01:30:00 -2.8  -6.6  1009.0 2.7 98 -
2018-01-20 01:00:00 -2.8  -5.7  1008.8 2.0 98 -
2018-01-20 00:30:00 -2.9  -6.2  1008.7 2.3 98 -
2018-01-20 00:00:00 -2.8  -6.6  1008.5 2.7 98 -
Unit conversions:
  • Temperature: 0 °C = 32 °F,  25 °C = 77 °F,  -25 °C = -13 °F  (degF = 32 +1.8*degC)
  • Wind speed:  1 m/s = 3,6 km/h = 2.23694 mph = 1.94387 kt